Time;durP1;ratioP1;P1;durP2;ratioP2;P2;SDS_P1;SDS_P2;PMS_P1;PMS_P2;Temp;Humidity;BMP_temperature;BMP_pressure;BME280_temperature;BME280_humidity;BME280_pressure;Samples;Min_cycle;Max_cycle;Signal;HPM_P1;HPM_P2
2022/09/20 00:01:15;;;;;;;6.80;2.87;;;;;;;;;;6189614;23;20406;-88
2022/09/20 00:03:44;;;;;;;12.17;3.97;;;;;;;;;;6189435;23;20457;-89
2022/09/20 00:06:12;;;;;;;7.80;3.20;;;;;;;;;;6190568;23;20463;-88
2022/09/20 00:08:40;;;;;;;9.40;3.83;;;;;;;;;;6189472;23;20475;-89
2022/09/20 00:11:13;;;;;;;9.73;3.67;;;;;;;;;;6214800;23;20447;-89
2022/09/20 00:13:50;;;;;;;10.13;3.90;;;;;;;;;;6214418;23;20438;-89
2022/09/20 00:16:22;;;;;;;9.70;3.80;;;;;;;;;;6215234;23;20403;-89
2022/09/20 00:18:50;;;;;;;7.97;3.90;;;;;;;;;;6190401;23;20811;-89
2022/09/20 00:21:19;;;;;;;12.17;4.27;;;;;;;;;;6215188;23;20869;-89
2022/09/20 00:23:47;;;;;;;9.23;3.10;;;;;;;;;;6190540;23;20432;-89
2022/09/20 00:26:14;;;;;;;10.77;4.00;;;;;;;;;;6190001;23;20739;-89
2022/09/20 00:28:42;;;;;;;10.33;3.20;;;;;;;;;;6214634;23;20406;-89
2022/09/20 00:31:10;;;;;;;8.80;4.40;;;;;;;;;;6189982;23;20446;-89
2022/09/20 00:36:26;;;;;;;12.20;4.63;;;;;;;;;;6214544;23;20431;-88
2022/09/20 00:38:54;;;;;;;11.27;4.30;;;;;;;;;;6189814;23;20376;-89
2022/09/20 00:41:21;;;;;;;8.33;3.90;;;;;;;;;;6189738;23;20466;-89
2022/09/20 00:43:50;;;;;;;6.53;3.60;;;;;;;;;;6190319;23;20403;-89
2022/09/20 00:46:36;;;;;;;12.30;4.37;;;;;;;;;;6213465;23;20412;-89
2022/09/20 00:49:21;;;;;;;11.90;4.23;;;;;;;;;;6214216;23;20400;-89
2022/09/20 00:51:50;;;;;;;13.33;4.87;;;;;;;;;;6189998;23;20461;-89
2022/09/20 00:54:18;;;;;;;12.90;4.43;;;;;;;;;;6189541;23;20407;-89
2022/09/20 00:56:46;;;;;;;11.40;3.93;;;;;;;;;;6189586;23;20384;-89
2022/09/20 00:59:14;;;;;;;12.80;4.93;;;;;;;;;;6189976;23;20450;-89
2022/09/20 01:01:43;;;;;;;9.80;3.80;;;;;;;;;;6189717;23;20914;-89
2022/09/20 01:04:11;;;;;;;7.97;3.70;;;;;;;;;;6190458;23;20690;-90
2022/09/20 01:06:39;;;;;;;8.77;3.90;;;;;;;;;;6189328;23;20415;-89
2022/09/20 01:09:07;;;;;;;6.90;3.87;;;;;;;;;;6214353;23;20403;-90
2022/09/20 01:11:34;;;;;;;13.50;4.13;;;;;;;;;;6214117;23;20454;-90
2022/09/20 01:14:01;;;;;;;6.97;3.77;;;;;;;;;;6189613;23;20399;-89
2022/09/20 01:16:30;;;;;;;9.57;4.13;;;;;;;;;;6214159;23;20921;-89
2022/09/20 01:18:58;;;;;;;8.40;3.60;;;;;;;;;;6214777;23;20414;-90
2022/09/20 01:21:25;;;;;;;7.27;3.57;;;;;;;;;;6188935;23;20454;-89
2022/09/20 01:23:53;;;;;;;8.43;3.53;;;;;;;;;;6213300;23;20469;-89
2022/09/20 01:26:26;;;;;;;10.80;4.53;;;;;;;;;;6213281;23;20411;-89
2022/09/20 01:29:13;;;;;;;14.53;3.90;;;;;;;;;;6214246;23;20403;-90
2022/09/20 01:32:05;;;;;;;8.53;3.57;;;;;;;;;;6198582;23;20459;-89
2022/09/20 01:34:34;;;;;;;8.87;3.83;;;;;;;;;;6213631;23;20403;-90
2022/09/20 01:37:18;;;;;;;18.63;4.33;;;;;;;;;;6188561;23;20491;-89
2022/09/20 01:39:51;;;;;;;13.97;4.13;;;;;;;;;;6213028;23;20435;-89
2022/09/20 01:42:23;;;;;;;10.33;4.27;;;;;;;;;;6215271;23;20404;-89
2022/09/20 01:45:09;;;;;;;9.87;3.63;;;;;;;;;;6189597;23;20404;-90
2022/09/20 01:47:38;;;;;;;9.80;4.13;;;;;;;;;;6216807;23;20734;-89
2022/09/20 01:50:21;;;;;;;9.10;4.07;;;;;;;;;;6216049;23;20446;-89
2022/09/20 01:52:55;;;;;;;9.93;4.33;;;;;;;;;;6215345;23;20410;-89
2022/09/20 01:55:41;;;;;;;10.40;4.00;;;;;;;;;;6191233;23;20469;-90
2022/09/20 01:58:27;;;;;;;13.27;4.67;;;;;;;;;;6217200;23;20415;-88
2022/09/20 02:01:11;;;;;;;9.37;4.00;;;;;;;;;;6216297;23;20410;-89
2022/09/20 02:03:38;;;;;;;10.10;4.00;;;;;;;;;;6216794;23;20388;-89
2022/09/20 02:06:18;;;;;;;9.33;4.80;;;;;;;;;;6215666;23;20461;-89
2022/09/20 02:08:54;;;;;;;11.10;4.17;;;;;;;;;;6215588;23;20411;-89
2022/09/20 02:11:51;;;;;;;9.93;4.10;;;;;;;;;;6215885;23;20451;-89
2022/09/20 02:14:35;;;;;;;14.47;4.37;;;;;;;;;;6139149;23;20401;-89
2022/09/20 02:17:07;;;;;;;14.70;4.63;;;;;;;;;;6216248;23;20486;-89
2022/09/20 02:19:34;;;;;;;10.67;4.20;;;;;;;;;;6216547;23;20462;-89
2022/09/20 02:22:09;;;;;;;21.90;4.73;;;;;;;;;;6215788;23;20408;-89
2022/09/20 02:24:42;;;;;;;12.80;4.50;;;;;;;;;;6215510;23;20407;-89
2022/09/20 02:27:28;;;;;;;21.20;5.30;;;;;;;;;;6214912;23;20407;-89
2022/09/20 02:29:55;;;;;;;13.70;4.97;;;;;;;;;;6217256;23;20399;-89
2022/09/20 02:32:27;;;;;;;9.43;4.37;;;;;;;;;;6216019;23;20410;-89
2022/09/20 02:34:58;;;;;;;13.63;4.40;;;;;;;;;;6190420;23;20408;-89
2022/09/20 02:37:25;;;;;;;13.93;4.30;;;;;;;;;;6215366;23;20459;-89
2022/09/20 02:40:09;;;;;;;9.87;4.00;;;;;;;;;;6215367;23;20486;-89
2022/09/20 02:42:45;;;;;;;13.20;4.20;;;;;;;;;;6216287;23;20856;-89
2022/09/20 02:45:22;;;;;;;13.00;4.40;;;;;;;;;;6215382;23;20414;-88
2022/09/20 02:47:51;;;;;;;8.23;3.90;;;;;;;;;;6190608;23;20407;-88
2022/09/20 02:50:30;;;;;;;9.63;4.23;;;;;;;;;;6190394;23;20508;-89
2022/09/20 02:53:01;;;;;;;7.70;4.20;;;;;;;;;;6216156;23;20406;-89
2022/09/20 02:55:35;;;;;;;8.57;3.90;;;;;;;;;;6215388;23;20894;-89
2022/09/20 02:58:09;;;;;;;12.50;4.73;;;;;;;;;;6215528;23;20411;-89
2022/09/20 03:00:46;;;;;;;10.27;4.27;;;;;;;;;;6214996;23;20427;-89
2022/09/20 03:03:33;;;;;;;9.53;4.20;;;;;;;;;;6216830;23;20774;-89
2022/09/20 03:06:21;;;;;;;13.97;4.23;;;;;;;;;;6190641;23;20465;-89
2022/09/20 03:09:04;;;;;;;17.13;4.10;;;;;;;;;;6202406;23;20396;-89
2022/09/20 03:11:31;;;;;;;12.33;4.07;;;;;;;;;;6190081;23;20493;-88
2022/09/20 03:14:17;;;;;;;12.93;4.27;;;;;;;;;;6216648;23;20404;-89
2022/09/20 03:16:51;;;;;;;13.73;4.77;;;;;;;;;;6215799;23;20408;-88
2022/09/20 03:19:18;;;;;;;11.40;4.10;;;;;;;;;;6217327;23;20768;-90
2022/09/20 03:22:04;;;;;;;10.87;4.30;;;;;;;;;;6215359;23;20411;-89
2022/09/20 03:24:36;;;;;;;7.67;4.40;;;;;;;;;;6215461;23;20400;-90
2022/09/20 03:27:23;;;;;;;10.20;4.43;;;;;;;;;;6191153;23;20886;-90
2022/09/20 03:29:58;;;;;;;10.10;3.97;;;;;;;;;;6215028;23;20404;-89
2022/09/20 03:32:44;;;;;;;12.47;4.67;;;;;;;;;;6215678;23;20411;-89
2022/09/20 03:35:30;;;;;;;14.80;4.70;;;;;;;;;;6215600;23;20479;-89
2022/09/20 03:38:01;;;;;;;12.17;4.30;;;;;;;;;;6215293;23;20403;-88
2022/09/20 03:41:08;;;;;;;15.07;5.00;;;;;;;;;;6214481;23;20443;-89
2022/09/20 03:43:53;;;;;;;7.93;4.90;;;;;;;;;;6130001;23;20405;-89
2022/09/20 03:46:25;;;;;;;11.23;4.10;;;;;;;;;;6129435;23;20417;-89
2022/09/20 03:48:55;;;;;;;12.97;5.00;;;;;;;;;;6130121;23;20921;-89
2022/09/20 03:51:41;;;;;;;13.57;4.30;;;;;;;;;;6153987;23;20438;-89
2022/09/20 03:54:27;;;;;;;13.00;5.10;;;;;;;;;;6129543;23;20952;-88
2022/09/20 03:57:18;;;;;;;12.20;4.20;;;;;;;;;;6129560;23;20429;-89
2022/09/20 04:00:04;;;;;;;9.23;4.60;;;;;;;;;;6130112;23;20394;-89
2022/09/20 04:02:35;;;;;;;10.80;4.37;;;;;;;;;;6129490;23;20405;-88
2022/09/20 04:05:09;;;;;;;14.93;4.80;;;;;;;;;;6129752;23;20955;-89
2022/09/20 04:07:51;;;;;;;13.43;5.33;;;;;;;;;;6129194;23;20931;-88
2022/09/20 04:10:38;;;;;;;12.90;4.87;;;;;;;;;;6153463;23;20406;-88
2022/09/20 04:13:05;;;;;;;8.57;4.43;;;;;;;;;;6129069;23;20475;-89
2022/09/20 04:15:50;;;;;;;9.37;4.03;;;;;;;;;;6236884;23;20439;-89
2022/09/20 04:18:25;;;;;;;11.20;4.27;;;;;;;;;;6186281;23;20910;-88
2022/09/20 04:20:55;;;;;;;9.07;4.20;;;;;;;;;;6215036;23;20478;-89
2022/09/20 04:23:30;;;;;;;14.03;4.87;;;;;;;;;;6189597;23;20412;-89
2022/09/20 04:25:57;;;;;;;14.57;4.77;;;;;;;;;;6214799;23;20399;-89
2022/09/20 04:28:26;;;;;;;9.13;3.83;;;;;;;;;;6189795;23;20403;-88
2022/09/20 04:30:54;;;;;;;11.93;4.63;;;;;;;;;;6189472;23;21008;-89
2022/09/20 04:33:26;;;;;;;14.00;5.43;;;;;;;;;;6190425;23;20411;-89
2022/09/20 04:38:40;;;;;;;11.07;4.97;;;;;;;;;;6216034;23;20404;-88
2022/09/20 04:41:28;;;;;;;10.27;4.10;;;;;;;;;;6189530;23;20711;-89
2022/09/20 04:44:07;;;;;;;19.47;4.17;;;;;;;;;;6213487;23;20431;-89
2022/09/20 04:46:40;;;;;;;14.67;5.00;;;;;;;;;;6214631;23;20441;-89
2022/09/20 04:49:20;;;;;;;13.90;4.50;;;;;;;;;;6212401;23;20462;-89
2022/09/20 04:52:06;;;;;;;8.73;4.13;;;;;;;;;;6213805;23;20446;-89
2022/09/20 04:54:52;;;;;;;10.97;3.97;;;;;;;;;;6213919;23;20403;-90
2022/09/20 04:57:44;;;;;;;14.40;4.80;;;;;;;;;;6214756;23;20400;-89
2022/09/20 05:00:15;;;;;;;9.20;4.23;;;;;;;;;;6185564;23;20408;-89
2022/09/20 05:02:49;;;;;;;15.63;4.73;;;;;;;;;;6189096;23;20411;-90
2022/09/20 05:05:23;;;;;;;12.33;4.33;;;;;;;;;;6215145;23;20404;-89
2022/09/20 05:07:50;;;;;;;9.70;4.20;;;;;;;;;;6214548;23;20907;-90
2022/09/20 05:10:56;;;;;;;16.73;4.90;;;;;;;;;;6214029;23;20411;-89
2022/09/20 05:13:42;;;;;;;12.87;4.47;;;;;;;;;;6129648;23;20944;-89
2022/09/20 05:16:15;;;;;;;14.60;4.13;;;;;;;;;;6128523;23;20464;-89
2022/09/20 05:18:54;;;;;;;9.20;3.80;;;;;;;;;;6153792;23;20404;-89
2022/09/20 05:21:40;;;;;;;14.47;4.50;;;;;;;;;;6129555;23;20405;-89
2022/09/20 05:24:07;;;;;;;11.00;4.30;;;;;;;;;;6155529;23;20397;-89
2022/09/20 05:26:45;;;;;;;12.50;4.27;;;;;;;;;;6155343;23;20417;-89
2022/09/20 05:29:17;;;;;;;11.37;4.03;;;;;;;;;;6131310;23;20401;-89
2022/09/20 05:31:48;;;;;;;17.77;4.27;;;;;;;;;;6131013;23;20453;-89
2022/09/20 05:34:34;;;;;;;15.47;5.07;;;;;;;;;;6107188;23;20433;-89
2022/09/20 05:37:07;;;;;;;14.47;5.07;;;;;;;;;;6144142;23;20427;-89
2022/09/20 05:39:35;;;;;;;15.40;5.93;;;;;;;;;;6215027;23;20388;-88
2022/09/20 05:42:13;;;;;;;14.20;5.40;;;;;;;;;;6215551;23;20782;-89
2022/09/20 05:44:45;;;;;;;11.13;4.90;;;;;;;;;;6216280;23;20391;-89
2022/09/20 05:47:17;;;;;;;22.60;5.37;;;;;;;;;;6215757;23;20794;-89
2022/09/20 05:50:07;;;;;;;11.43;4.77;;;;;;;;;;6191499;23;20407;-90
2022/09/20 05:52:35;;;;;;;12.90;4.07;;;;;;;;;;6175681;23;20451;-89
2022/09/20 05:55:10;;;;;;;11.93;4.90;;;;;;;;;;6216328;23;20399;-89
2022/09/20 05:57:38;;;;;;;13.90;4.43;;;;;;;;;;6191295;23;20497;-90
2022/09/20 06:00:12;;;;;;;9.23;3.70;;;;;;;;;;6215683;23;20488;-88
2022/09/20 06:02:42;;;;;;;11.97;4.50;;;;;;;;;;6190682;23;20414;-89
2022/09/20 06:05:10;;;;;;;14.37;4.30;;;;;;;;;;6191411;23;20746;-89
2022/09/20 06:07:50;;;;;;;23.53;5.47;;;;;;;;;;6215468;23;20403;-89
2022/09/20 06:10:24;;;;;;;15.70;4.50;;;;;;;;;;6191008;23;20403;-89
2022/09/20 06:12:55;;;;;;;10.60;3.90;;;;;;;;;;6215893;23;20454;-89
2022/09/20 06:15:25;;;;;;;9.03;4.83;;;;;;;;;;6216122;23;20412;-90
2022/09/20 06:17:59;;;;;;;8.93;4.47;;;;;;;;;;6216220;23;20388;-90
2022/09/20 06:20:46;;;;;;;14.70;5.23;;;;;;;;;;6191179;23;20407;-89
2022/09/20 06:23:14;;;;;;;17.57;5.10;;;;;;;;;;6215226;23;20403;-90
2022/09/20 06:25:54;;;;;;;13.50;4.93;;;;;;;;;;6190496;23;20411;-89
2022/09/20 06:28:45;;;;;;;13.63;4.33;;;;;;;;;;6192872;23;20379;-89
2022/09/20 06:31:12;;;;;;;13.80;5.50;;;;;;;;;;6216878;23;20535;-89
2022/09/20 06:33:43;;;;;;;18.17;4.60;;;;;;;;;;6191727;23;20739;-89
2022/09/20 06:42:14;;;;;;;12.40;5.27;;;;;;;;;;6217461;23;20388;-89
2022/09/20 06:44:42;;;;;;;9.87;4.57;;;;;;;;;;6190486;23;20415;-89
2022/09/20 06:47:09;;;;;;;16.83;5.37;;;;;;;;;;6215595;23;20410;-89
2022/09/20 06:49:38;;;;;;;11.80;4.60;;;;;;;;;;6190799;23;20454;-89
2022/09/20 06:52:06;;;;;;;18.17;4.87;;;;;;;;;;6190269;23;20443;-89
2022/09/20 06:54:36;;;;;;;11.43;4.93;;;;;;;;;;6190383;23;20408;-90
2022/09/20 06:57:03;;;;;;;16.57;5.33;;;;;;;;;;6191482;23;20866;-90
2022/09/20 06:59:31;;;;;;;19.03;4.50;;;;;;;;;;6191035;23;20772;-89
2022/09/20 07:01:59;;;;;;;30.20;7.00;;;;;;;;;;6190776;23;20407;-88
2022/09/20 07:04:27;;;;;;;22.00;6.00;;;;;;;;;;6191370;23;20431;-89
2022/09/20 07:07:01;;;;;;;16.50;5.83;;;;;;;;;;6190988;23;20427;-89
2022/09/20 07:09:34;;;;;;;28.17;5.10;;;;;;;;;;6191646;23;20396;-89
2022/09/20 07:12:02;;;;;;;15.27;4.70;;;;;;;;;;6190618;23;20444;-89
2022/09/20 07:14:30;;;;;;;11.43;5.07;;;;;;;;;;6189727;23;20494;-92
2022/09/20 07:23:34;;;;;;;16.27;4.40;;;;;;;;;;6217339;23;20390;-91
2022/09/20 07:29:22;;;;;;;22.83;4.63;;;;;;;;;;6216638;23;20371;-92
2022/09/20 07:31:57;;;;;;;17.10;4.83;;;;;;;;;;6190912;23;20972;-93
2022/09/20 07:34:48;;;;;;;13.40;4.60;;;;;;;;;;6191096;23;20482;-92
2022/09/20 07:40:31;;;;;;;15.60;4.50;;;;;;;;;;6217710;23;20383;-92
2022/09/20 07:46:13;;;;;;;20.00;4.60;;;;;;;;;;6217910;23;20388;-93
2022/09/20 07:52:03;;;;;;;19.40;4.83;;;;;;;;;;6216879;23;20427;-94
2022/09/20 07:54:44;;;;;;;12.00;4.17;;;;;;;;;;6191108;23;20728;-93
2022/09/20 07:57:25;;;;;;;17.17;5.13;;;;;;;;;;6190658;23;20403;-93
2022/09/20 07:59:54;;;;;;;8.63;3.40;;;;;;;;;;6220817;23;20426;-92
2022/09/20 08:02:29;;;;;;;17.33;5.37;;;;;;;;;;6196691;23;20885;-93
2022/09/20 08:04:58;;;;;;;20.30;3.93;;;;;;;;;;6191766;23;20722;-92
2022/09/20 08:11:01;;;;;;;15.83;4.60;;;;;;;;;;6217827;23;20371;-94
2022/09/20 08:13:30;;;;;;;15.83;3.80;;;;;;;;;;6191448;23;20387;-94
2022/09/20 08:16:36;;;;;;;17.33;4.00;;;;;;;;;;6193634;23;20422;-94
2022/09/20 08:22:11;;;;;;;20.50;4.50;;;;;;;;;;6216468;23;20401;-93
2022/09/20 08:24:58;;;;;;;18.43;3.37;;;;;;;;;;6215030;23;20412;-94
2022/09/20 08:27:32;;;;;;;11.83;3.50;;;;;;;;;;6214851;23;20422;-93
2022/09/20 08:30:06;;;;;;;13.03;3.73;;;;;;;;;;6190855;23;20490;-93
2022/09/20 08:32:49;;;;;;;6.53;3.33;;;;;;;;;;6190828;23;20846;-93
2022/09/20 08:35:21;;;;;;;12.70;3.33;;;;;;;;;;6215059;23;20965;-93
2022/09/20 08:38:29;;;;;;;12.40;3.73;;;;;;;;;;6193203;23;20910;-93
2022/09/20 08:41:18;;;;;;;14.80;3.70;;;;;;;;;;6214902;23;20458;-93
2022/09/20 08:47:12;;;;;;;18.20;4.67;;;;;;;;;;6216761;23;20503;-94
2022/09/20 08:49:58;;;;;;;12.10;3.00;;;;;;;;;;6189663;23;20408;-94
2022/09/20 08:52:34;;;;;;;18.60;4.00;;;;;;;;;;6214213;23;20455;-93
2022/09/20 08:55:08;;;;;;;13.03;3.27;;;;;;;;;;6214749;23;20487;-90
2022/09/20 08:57:35;;;;;;;11.73;3.07;;;;;;;;;;6214591;23;20407;-90
2022/09/20 09:00:04;;;;;;;14.17;3.77;;;;;;;;;;6190182;23;20407;-91
2022/09/20 09:02:34;;;;;;;19.60;3.23;;;;;;;;;;6189194;23;20911;-91
2022/09/20 09:05:13;;;;;;;10.20;2.93;;;;;;;;;;6213742;23;20911;-90
2022/09/20 09:07:44;;;;;;;15.37;3.80;;;;;;;;;;6215605;23;20889;-89
2022/09/20 09:10:11;;;;;;;11.83;3.10;;;;;;;;;;6218700;23;20407;-92
2022/09/20 09:12:45;;;;;;;13.33;3.80;;;;;;;;;;6216373;23;20543;-94
2022/09/20 09:15:38;;;;;;;11.50;3.30;;;;;;;;;;6196665;23;20448;-94
2022/09/20 09:18:10;;;;;;;15.43;3.17;;;;;;;;;;6190294;23;20395;-93
2022/09/20 09:20:48;;;;;;;12.23;3.40;;;;;;;;;;6214895;23;20452;-92
2022/09/20 09:23:26;;;;;;;10.87;3.43;;;;;;;;;;6214805;23;20412;-92
2022/09/20 09:25:56;;;;;;;19.63;3.63;;;;;;;;;;6215168;23;20422;-93
2022/09/20 09:28:41;;;;;;;12.43;3.53;;;;;;;;;;6214875;23;20450;-92
2022/09/20 09:31:26;;;;;;;15.40;3.50;;;;;;;;;;6215280;23;20415;-92
2022/09/20 09:33:56;;;;;;;12.43;3.50;;;;;;;;;;6190701;23;20380;-93
2022/09/20 09:36:32;;;;;;;17.17;3.90;;;;;;;;;;6189164;23;20439;-93
2022/09/20 09:39:21;;;;;;;18.33;3.63;;;;;;;;;;6192282;23;20406;-91
2022/09/20 09:41:49;;;;;;;11.20;3.20;;;;;;;;;;6215946;23;20800;-91
2022/09/20 09:44:40;;;;;;;11.07;3.13;;;;;;;;;;6190797;23;20909;-92
2022/09/20 09:47:21;;;;;;;13.43;3.33;;;;;;;;;;6214450;23;20523;-92
2022/09/20 09:53:20;;;;;;;10.30;3.20;;;;;;;;;;6215692;23;20587;-92
2022/09/20 09:56:03;;;;;;;17.43;3.17;;;;;;;;;;6190437;23;20430;-92
2022/09/20 09:58:34;;;;;;;12.77;3.23;;;;;;;;;;6214075;23;20410;-90
2022/09/20 10:01:04;;;;;;;18.57;4.47;;;;;;;;;;6188920;23;20506;-91
2022/09/20 10:03:38;;;;;;;11.70;3.13;;;;;;;;;;6190479;23;20393;-92
2022/09/20 10:08:59;;;;;;;16.40;3.60;;;;;;;;;;6217829;23;20473;-91
2022/09/20 10:11:29;;;;;;;12.50;2.67;;;;;;;;;;6215547;23;20477;-91
2022/09/20 10:14:15;;;;;;;13.30;3.23;;;;;;;;;;6217076;23;20392;-91
2022/09/20 10:17:01;;;;;;;9.43;2.50;;;;;;;;;;6216953;23;20438;-92
2022/09/20 10:19:48;;;;;;;12.00;2.43;;;;;;;;;;6217073;23;20380;-91
2022/09/20 10:22:27;;;;;;;10.67;2.70;;;;;;;;;;6217017;23;20407;-91
2022/09/20 10:25:00;;;;;;;11.87;2.70;;;;;;;;;;6191255;23;20895;-91
2022/09/20 10:27:47;;;;;;;19.63;3.83;;;;;;;;;;6216114;23;20747;-92
2022/09/20 10:30:19;;;;;;;12.77;2.80;;;;;;;;;;6214677;23;20435;-91
2022/09/20 10:33:09;;;;;;;11.50;2.63;;;;;;;;;;6190218;23;20978;-92
2022/09/20 10:35:42;;;;;;;26.40;3.47;;;;;;;;;;6191087;23;20728;-92
2022/09/20 10:38:10;;;;;;;13.67;3.27;;;;;;;;;;6216607;23;20863;-90
2022/09/20 10:43:33;;;;;;;22.30;3.30;;;;;;;;;;6217616;23;20415;-92
2022/09/20 10:46:07;;;;;;;26.60;4.27;;;;;;;;;;6215776;23;20406;-91
2022/09/20 10:49:12;;;;;;;23.17;3.40;;;;;;;;;;6195831;23;20414;-91
2022/09/20 10:51:43;;;;;;;18.60;3.90;;;;;;;;;;6191093;23;20450;-91
2022/09/20 10:54:29;;;;;;;12.73;3.23;;;;;;;;;;6215366;23;20742;-91
2022/09/20 10:57:17;;;;;;;14.77;3.67;;;;;;;;;;6215927;23;20407;-91
2022/09/20 10:59:57;;;;;;;13.37;3.33;;;;;;;;;;6215075;23;20726;-90
2022/09/20 11:02:34;;;;;;;25.50;4.57;;;;;;;;;;6190979;23;20423;-91
2022/09/20 11:05:14;;;;;;;14.10;3.20;;;;;;;;;;6216262;23;20406;-91
2022/09/20 11:08:01;;;;;;;11.87;2.87;;;;;;;;;;6215918;23;20420;-90
2022/09/20 11:10:48;;;;;;;13.83;3.10;;;;;;;;;;6215199;23;20419;-91
2022/09/20 11:13:31;;;;;;;15.60;3.33;;;;;;;;;;6215141;23;20819;-91
2022/09/20 11:16:06;;;;;;;16.20;3.57;;;;;;;;;;6216916;23;20387;-91
2022/09/20 11:18:39;;;;;;;17.67;3.20;;;;;;;;;;6190329;23;20490;-91
2022/09/20 11:21:08;;;;;;;18.33;3.63;;;;;;;;;;6190523;23;20412;-91
2022/09/20 11:23:38;;;;;;;13.17;2.77;;;;;;;;;;6189922;23;20403;-91
2022/09/20 11:26:10;;;;;;;7.63;2.43;;;;;;;;;;6189073;23;20494;-91
2022/09/20 11:28:41;;;;;;;13.07;3.00;;;;;;;;;;6190011;23;20408;-91
2022/09/20 11:31:23;;;;;;;17.07;3.23;;;;;;;;;;6190354;23;20418;-92
2022/09/20 11:33:55;;;;;;;10.53;2.87;;;;;;;;;;6190662;23;20945;-91
2022/09/20 11:37:02;;;;;;;17.83;3.60;;;;;;;;;;6189939;23;20818;-90
2022/09/20 11:39:31;;;;;;;15.87;2.30;;;;;;;;;;6214048;23;20418;-90
2022/09/20 11:41:59;;;;;;;9.30;2.80;;;;;;;;;;6214898;23;20446;-91
2022/09/20 11:44:26;;;;;;;10.40;2.60;;;;;;;;;;6189681;23;20399;-91
2022/09/20 11:46:54;;;;;;;12.23;2.50;;;;;;;;;;6190553;23;20403;-90
2022/09/20 11:49:26;;;;;;;14.80;2.87;;;;;;;;;;6190315;23;20431;-92
2022/09/20 11:52:12;;;;;;;9.30;2.20;;;;;;;;;;6189972;23;20411;-91
2022/09/20 11:55:01;;;;;;;11.50;2.00;;;;;;;;;;6215278;23;20405;-90
2022/09/20 11:57:29;;;;;;;13.97;2.60;;;;;;;;;;6169936;23;20411;-92
2022/09/20 12:00:02;;;;;;;13.40;2.20;;;;;;;;;;6215472;23;20600;-92
2022/09/20 12:02:48;;;;;;;16.33;3.30;;;;;;;;;;6191431;23;20402;-92
2022/09/20 12:05:26;;;;;;;12.27;2.67;;;;;;;;;;6190200;23;20411;-91
2022/09/20 12:07:55;;;;;;;8.63;2.30;;;;;;;;;;6191179;23;20784;-91
2022/09/20 12:10:26;;;;;;;8.83;2.50;;;;;;;;;;6190597;23;20949;-91
2022/09/20 12:12:55;;;;;;;11.13;2.17;;;;;;;;;;6191001;23;20463;-91
2022/09/20 12:15:26;;;;;;;11.93;2.13;;;;;;;;;;6190429;23;20410;-92
2022/09/20 12:17:55;;;;;;;8.10;1.83;;;;;;;;;;6190856;23;20445;-91
2022/09/20 12:20:31;;;;;;;10.10;2.33;;;;;;;;;;6215055;23;20418;-91
2022/09/20 12:23:18;;;;;;;8.60;2.33;;;;;;;;;;6216340;23;20403;-90
2022/09/20 12:26:12;;;;;;;16.63;2.90;;;;;;;;;;6216546;23;20729;-91
2022/09/20 12:28:40;;;;;;;9.93;2.23;;;;;;;;;;6181406;23;20398;-91
2022/09/20 12:31:28;;;;;;;5.83;1.73;;;;;;;;;;6190052;23;20886;-91
2022/09/20 12:34:11;;;;;;;6.30;2.33;;;;;;;;;;6214870;23;20447;-91
2022/09/20 12:36:53;;;;;;;12.67;2.37;;;;;;;;;;6214239;23;20403;-90
2022/09/20 12:39:21;;;;;;;7.33;2.23;;;;;;;;;;6215322;23;20419;-92
2022/09/20 12:41:56;;;;;;;10.43;2.10;;;;;;;;;;6191750;23;20407;-91
2022/09/20 12:44:42;;;;;;;14.53;2.40;;;;;;;;;;6215153;23;20462;-90
2022/09/20 12:47:09;;;;;;;7.13;2.10;;;;;;;;;;6215092;23;20387;-91
2022/09/20 12:55:28;;;;;;;15.27;2.23;;;;;;;;;;6215028;23;20901;-90
2022/09/20 12:58:02;;;;;;;16.60;2.20;;;;;;;;;;6216114;23;20411;-90
2022/09/20 13:00:36;;;;;;;18.07;2.30;;;;;;;;;;6190701;23;20411;-91
2022/09/20 13:03:10;;;;;;;6.23;1.73;;;;;;;;;;6190254;23;20902;-91
2022/09/20 13:05:39;;;;;;;11.50;2.60;;;;;;;;;;6190885;23;20411;-91
2022/09/20 13:08:09;;;;;;;7.07;2.67;;;;;;;;;;6190419;23;20399;-91
2022/09/20 13:10:37;;;;;;;10.07;2.33;;;;;;;;;;6215369;23;20395;-91
2022/09/20 13:13:11;;;;;;;12.17;2.83;;;;;;;;;;6214446;23;20426;-90
2022/09/20 13:15:40;;;;;;;9.97;2.80;;;;;;;;;;6190165;23;20392;-91
2022/09/20 13:18:10;;;;;;;13.43;2.50;;;;;;;;;;6190245;23;20454;-91
2022/09/20 13:20:38;;;;;;;12.37;2.70;;;;;;;;;;6189828;23;20403;-91
2022/09/20 13:23:06;;;;;;;10.70;2.87;;;;;;;;;;6190359;23;20399;-91
2022/09/20 13:25:34;;;;;;;15.33;2.93;;;;;;;;;;6190649;23;20438;-91
2022/09/20 13:28:07;;;;;;;10.57;3.20;;;;;;;;;;6190630;23;20404;-92
2022/09/20 13:30:39;;;;;;;7.70;2.80;;;;;;;;;;6190396;23;20715;-90
2022/09/20 13:33:16;;;;;;;15.63;3.67;;;;;;;;;;6191312;23;20738;-91
2022/09/20 13:35:45;;;;;;;7.80;2.37;;;;;;;;;;6214714;23;20402;-91
2022/09/20 13:38:13;;;;;;;15.43;2.63;;;;;;;;;;6189767;23;20434;-90
2022/09/20 13:40:47;;;;;;;5.47;2.60;;;;;;;;;;6189696;23;20411;-92
2022/09/20 13:43:19;;;;;;;7.03;2.40;;;;;;;;;;6216264;23;20490;-91
2022/09/20 13:45:56;;;;;;;12.20;2.53;;;;;;;;;;6216612;23;20783;-90
2022/09/20 13:48:25;;;;;;;8.27;2.47;;;;;;;;;;6192314;23;20453;-91
2022/09/20 13:50:53;;;;;;;13.07;2.40;;;;;;;;;;6190768;23;20734;-90
2022/09/20 13:53:23;;;;;;;10.83;2.70;;;;;;;;;;6191383;23;20533;-90
2022/09/20 13:56:20;;;;;;;12.50;2.80;;;;;;;;;;6216703;23;20893;-91
2022/09/20 13:58:48;;;;;;;10.40;2.67;;;;;;;;;;6192296;23;20383;-91
2022/09/20 14:01:30;;;;;;;8.53;2.67;;;;;;;;;;6192708;23;20379;-91
2022/09/20 14:04:16;;;;;;;11.23;2.40;;;;;;;;;;6192058;23;20876;-91
2022/09/20 14:06:44;;;;;;;5.77;2.20;;;;;;;;;;6191096;23;20964;-91
2022/09/20 14:09:19;;;;;;;8.63;2.63;;;;;;;;;;6191938;23;20437;-91
2022/09/20 14:11:47;;;;;;;10.70;2.20;;;;;;;;;;6191794;23;20777;-92
2022/09/20 14:14:15;;;;;;;12.17;2.73;;;;;;;;;;6191463;23;21036;-90
2022/09/20 14:16:48;;;;;;;14.40;3.30;;;;;;;;;;6192278;23;20395;-92
2022/09/20 14:19:17;;;;;;;14.53;2.73;;;;;;;;;;6216473;23;20406;-91
2022/09/20 14:21:44;;;;;;;9.60;3.40;;;;;;;;;;6216238;23;20410;-92
2022/09/20 14:24:15;;;;;;;10.43;3.07;;;;;;;;;;6191784;23;20767;-91
2022/09/20 14:26:44;;;;;;;7.33;2.00;;;;;;;;;;6216774;23;20414;-92
2022/09/20 14:29:30;;;;;;;14.00;3.10;;;;;;;;;;6216218;23;20411;-91
2022/09/20 14:31:59;;;;;;;15.23;3.50;;;;;;;;;;6216351;23;20410;-91
2022/09/20 14:34:26;;;;;;;12.60;2.67;;;;;;;;;;6192226;23;20782;-91
2022/09/20 14:37:01;;;;;;;13.30;2.73;;;;;;;;;;6191660;23;20435;-90
2022/09/20 14:39:28;;;;;;;13.60;2.90;;;;;;;;;;6191197;23;20906;-91
2022/09/20 14:41:55;;;;;;;9.23;3.13;;;;;;;;;;6191092;23;20453;-92
2022/09/20 14:44:33;;;;;;;10.47;2.47;;;;;;;;;;6191186;23;20801;-92
2022/09/20 14:47:12;;;;;;;11.73;3.70;;;;;;;;;;6192263;23;20891;-92
2022/09/20 14:49:42;;;;;;;7.57;3.07;;;;;;;;;;6192012;23;20392;-91
2022/09/20 14:52:25;;;;;;;18.90;5.17;;;;;;;;;;6192024;23;20406;-91
2022/09/20 14:55:02;;;;;;;13.70;3.50;;;;;;;;;;6216039;23;20988;-91
2022/09/20 14:57:31;;;;;;;11.57;3.33;;;;;;;;;;6191336;23;20475;-91
2022/09/20 15:00:03;;;;;;;16.23;3.33;;;;;;;;;;6191047;23;20423;-91
2022/09/20 15:02:30;;;;;;;10.70;3.70;;;;;;;;;;6191258;23;20416;-92
2022/09/20 15:05:04;;;;;;;11.00;3.07;;;;;;;;;;6191365;23;20407;-91
2022/09/20 15:07:38;;;;;;;13.60;3.30;;;;;;;;;;6191615;23;20408;-91
2022/09/20 15:10:10;;;;;;;9.40;3.23;;;;;;;;;;6191507;23;20395;-91
2022/09/20 15:12:39;;;;;;;12.50;3.50;;;;;;;;;;6191541;23;20384;-90
2022/09/20 15:15:16;;;;;;;11.60;3.97;;;;;;;;;;6191235;23;20447;-91
2022/09/20 15:17:45;;;;;;;8.83;3.27;;;;;;;;;;6192848;23;20378;-91
2022/09/20 15:20:42;;;;;;;13.43;3.93;;;;;;;;;;6190553;23;20407;-92
2022/09/20 15:23:16;;;;;;;9.10;3.33;;;;;;;;;;6211809;23;20383;-92
2022/09/20 15:25:46;;;;;;;14.47;4.07;;;;;;;;;;6215572;23;20415;-90
2022/09/20 15:28:16;;;;;;;20.30;4.67;;;;;;;;;;6191871;23;20393;-91
2022/09/20 15:30:44;;;;;;;13.97;3.10;;;;;;;;;;6190202;23;20403;-91
2022/09/20 15:33:11;;;;;;;15.47;3.90;;;;;;;;;;6191238;23;20384;-92
2022/09/20 15:35:41;;;;;;;11.20;3.30;;;;;;;;;;6191843;23;20719;-91
2022/09/20 15:38:10;;;;;;;13.23;3.40;;;;;;;;;;6217312;23;20449;-91
2022/09/20 15:40:41;;;;;;;16.03;4.03;;;;;;;;;;6191923;23;20411;-91
2022/09/20 15:43:11;;;;;;;15.37;3.90;;;;;;;;;;6191282;23;20890;-91
2022/09/20 15:46:15;;;;;;;12.53;3.80;;;;;;;;;;6190620;23;20511;-91
2022/09/20 15:48:43;;;;;;;16.93;3.97;;;;;;;;;;6216106;23;20418;-92
2022/09/20 15:51:10;;;;;;;22.67;4.07;;;;;;;;;;6214237;23;20411;-91
2022/09/20 15:53:45;;;;;;;14.33;2.97;;;;;;;;;;6190808;23;20446;-91
2022/09/20 15:56:22;;;;;;;15.23;3.40;;;;;;;;;;6190356;23;20415;-91
2022/09/20 15:58:58;;;;;;;18.27;3.87;;;;;;;;;;6191840;23;20465;-92
2022/09/20 16:01:26;;;;;;;17.50;3.77;;;;;;;;;;6192020;23;20461;-91
2022/09/20 16:03:54;;;;;;;20.17;3.87;;;;;;;;;;6191073;23;20399;-92
2022/09/20 16:06:24;;;;;;;28.50;3.77;;;;;;;;;;6190806;23;20398;-91
2022/09/20 16:08:52;;;;;;;15.83;4.00;;;;;;;;;;6190180;23;20411;-91
2022/09/20 16:11:20;;;;;;;18.20;3.17;;;;;;;;;;6190811;23;20859;-90
2022/09/20 16:13:54;;;;;;;15.73;4.57;;;;;;;;;;6191667;23;20518;-91
2022/09/20 16:16:22;;;;;;;14.60;3.87;;;;;;;;;;6191137;23;20450;-91